Airfield :
LOGIN :

Register | Disclaimer

   EN    FR    IT 

 










Legend :    VFR   Marginal VFR   IFR   Intensive IFR   Very Intensive IFR
Visi :
Ceiling :
>= 8 km
>= 3000ft
5 to 8 km
1000 to 3000 ft
1500m to 5 km
500 to 1000 ft
800 to 1500m
200 to 500 ft
< 800m
< 200 ft
Symbols :   Thunderstorms  Fog  Heavy snow  Heavy precipitations  Wind > 20 kt
SIGMETs :     Misc.  Thunderstorms  Icing  Turbulence  Mountain Waves  Volcanic Ashes







- Airport Elevation : 14 ft
- IATA code : URE


EEKE - Kuressaare

CURRENT METAR :
  • 141650Z AUTO 11005KT 9999NDV -RA SCT011 BKN015 16/15 Q1009

EXPIRED METARs :
  • 141550Z 09006KT 9999 -RA SCT040 17/15 Q1009
  • 141450Z 09006KT 9999 -RA OVC041 17/14 Q1009

TAF TAF EEKE
Valid from the 14 at 15:00 until the 14 at 21:00 UTC


141400Z 1415/1421 10012KT 8000 RA SCT010 BKN030
TEMPO 1415/1421 3000 SHRA BR BKN006 SCT020CB
PROB30
TEMPO 1416/1420 TSRA BEGMG 1419/1421 08013G23KT
No reported NOTAMs for that airfield.



MET'MAP, your aeronautical weather chart ! - Copyright ORBIFLY December 2007 - Disclaimer

ORBIFLY MET'MAP TEAM :

Programming & Development : Alexandra Zaïnal
Concept & Development : Baudouin d'Aumeries
Co-Development & Prog : Marc-Olivier Méhu
Technical & hardware support : Manuel Goepfert

Contact : metmap@orbifly.com




SOURCES & CREDITS :

   NOAA